createdAt,value
2022-08-03T00:01:05.963Z,12.33
2022-08-03T00:03:36.706Z,11.13
2022-08-03T00:06:07.407Z,13.03
2022-08-03T00:08:40.091Z,11.93
2022-08-03T00:11:10.612Z,10.63
2022-08-03T00:13:40.909Z,13.63
2022-08-03T00:16:14.109Z,9.40
2022-08-03T00:18:44.726Z,10.33
2022-08-03T00:21:15.703Z,15.73
2022-08-03T00:23:51.788Z,12.90
2022-08-03T00:26:23.259Z,16.03
2022-08-03T00:28:53.718Z,16.67
2022-08-03T00:31:40.051Z,11.03
2022-08-03T00:34:16.347Z,12.33
2022-08-03T00:36:46.361Z,9.63
2022-08-03T00:39:16.397Z,9.60
2022-08-03T00:41:46.457Z,13.10
2022-08-03T00:44:16.475Z,12.23
2022-08-03T00:46:49.056Z,10.93
2022-08-03T00:49:19.226Z,10.07
2022-08-03T00:51:50.282Z,9.17
2022-08-03T00:54:21.576Z,10.80
2022-08-03T00:57:00.345Z,9.93
2022-08-03T00:59:30.960Z,13.80
2022-08-03T01:02:03.762Z,10.73
2022-08-03T01:04:33.822Z,10.40
2022-08-03T01:07:15.827Z,11.43
2022-08-03T01:10:03.466Z,11.17
2022-08-03T01:12:45.480Z,11.43
2022-08-03T01:15:28.121Z,10.30
2022-08-03T01:18:09.308Z,11.30
2022-08-03T01:20:46.602Z,12.10
2022-08-03T01:23:40.105Z,12.00
2022-08-03T01:26:30.824Z,12.40
2022-08-03T01:29:25.090Z,12.90
2022-08-03T01:32:54.525Z,13.87
2022-08-03T01:35:03.823Z,10.60
2022-08-03T01:37:43.537Z,10.67
2022-08-03T01:40:17.029Z,12.40
2022-08-03T01:42:50.537Z,14.13
2022-08-03T01:45:24.542Z,12.20
2022-08-03T01:47:58.891Z,13.20
2022-08-03T01:50:34.450Z,13.70
2022-08-03T01:53:07.962Z,12.77
2022-08-03T01:55:40.797Z,14.13
2022-08-03T01:58:11.846Z,14.87
2022-08-03T02:00:48.123Z,13.10
2022-08-03T02:03:24.201Z,14.70
2022-08-03T02:06:40.971Z,14.87
2022-08-03T02:08:51.128Z,12.50
2022-08-03T02:11:21.357Z,17.67
2022-08-03T02:13:54.397Z,13.90
2022-08-03T02:16:29.292Z,11.43
2022-08-03T02:19:04.252Z,14.87
2022-08-03T02:21:57.216Z,11.03
2022-08-03T02:24:30.209Z,14.53
2022-08-03T02:27:01.990Z,13.00
2022-08-03T02:29:38.772Z,13.57
2022-08-03T02:32:15.599Z,15.83
2022-08-03T02:34:51.615Z,13.10
2022-08-03T02:37:23.877Z,11.67
2022-08-03T02:39:57.518Z,12.37
2022-08-03T02:42:29.776Z,14.37
2022-08-03T02:45:04.731Z,11.20
2022-08-03T02:47:54.132Z,16.20
2022-08-03T02:50:30.447Z,16.50
2022-08-03T02:53:02.821Z,12.57
2022-08-03T02:55:36.235Z,12.53
2022-08-03T02:58:16.097Z,17.50
2022-08-03T03:00:48.077Z,10.93
2022-08-03T03:03:18.670Z,14.80
2022-08-03T03:05:57.352Z,11.97
2022-08-03T03:08:31.166Z,10.07
2022-08-03T03:11:04.313Z,11.90
2022-08-03T03:13:35.368Z,12.20
2022-08-03T03:16:09.032Z,14.03
2022-08-03T03:18:41.977Z,13.40
2022-08-03T03:21:17.157Z,14.63
2022-08-03T03:23:49.512Z,12.90
2022-08-03T03:26:19.949Z,11.80
2022-08-03T03:28:50.495Z,18.23
2022-08-03T03:31:20.517Z,14.17
2022-08-03T03:33:51.146Z,14.17
2022-08-03T03:36:23.746Z,15.37
2022-08-03T03:38:53.930Z,11.40
2022-08-03T03:41:23.989Z,12.60
2022-08-03T03:43:54.114Z,16.67
2022-08-03T03:46:24.390Z,25.37
2022-08-03T03:48:54.673Z,13.40
2022-08-03T03:51:27.375Z,13.30
2022-08-03T03:53:59.729Z,16.27
2022-08-03T03:56:31.411Z,11.43
2022-08-03T03:59:01.784Z,13.27
2022-08-03T04:01:32.088Z,14.77
2022-08-03T04:04:22.935Z,13.40
2022-08-03T04:07:07.998Z,15.23
2022-08-03T04:09:53.761Z,14.20
2022-08-03T04:12:30.891Z,12.80
2022-08-03T04:15:03.977Z,13.50
2022-08-03T04:17:35.598Z,14.67
2022-08-03T04:20:08.264Z,18.37
2022-08-03T04:22:42.427Z,13.27
2022-08-03T04:25:19.450Z,13.50
2022-08-03T04:28:29.435Z,14.30
2022-08-03T04:30:52.531Z,13.47
2022-08-03T04:33:25.151Z,16.93
2022-08-03T04:36:04.547Z,12.70
2022-08-03T04:38:45.023Z,14.23
2022-08-03T04:41:16.405Z,14.20
2022-08-03T04:43:47.533Z,13.83
2022-08-03T04:46:18.889Z,14.10
2022-08-03T04:48:49.192Z,14.43
2022-08-03T04:51:19.881Z,13.00
2022-08-03T04:53:52.730Z,13.73
2022-08-03T04:56:22.922Z,11.23
2022-08-03T04:58:53.091Z,9.20
2022-08-03T05:01:23.490Z,35.23
2022-08-03T05:03:53.518Z,8.87
2022-08-03T05:06:25.177Z,8.73
2022-08-03T05:08:58.056Z,10.13
2022-08-03T05:11:28.016Z,12.87
2022-08-03T05:13:58.765Z,7.77
2022-08-03T05:16:28.734Z,13.90
2022-08-03T05:18:58.675Z,12.40
2022-08-03T05:21:52.136Z,7.40
2022-08-03T05:24:21.246Z,8.80
2022-08-03T05:26:51.233Z,10.03
2022-08-03T05:29:21.200Z,7.93
2022-08-03T05:31:51.234Z,9.97
2022-08-03T05:34:21.169Z,17.03
2022-08-03T05:36:51.141Z,9.97
2022-08-03T05:39:23.676Z,11.80
2022-08-03T05:41:53.622Z,8.60
2022-08-03T05:44:25.582Z,10.60
2022-08-03T05:46:55.735Z,11.90
2022-08-03T05:49:25.938Z,9.60
2022-08-03T05:52:11.837Z,8.07
2022-08-03T05:54:56.710Z,10.17
2022-08-03T05:57:28.061Z,9.10
2022-08-03T05:59:58.822Z,14.33
2022-08-03T06:02:29.401Z,9.97
2022-08-03T06:04:59.413Z,8.83
2022-08-03T06:07:29.682Z,9.93
2022-08-03T06:10:36.726Z,7.33
2022-08-03T06:12:53.566Z,7.63
2022-08-03T06:15:24.039Z,14.13
2022-08-03T06:18:01.464Z,8.63
2022-08-03T06:20:32.392Z,9.57
2022-08-03T06:23:02.869Z,11.20
2022-08-03T06:25:35.488Z,10.33
2022-08-03T06:28:05.457Z,8.27
2022-08-03T06:30:35.682Z,12.17
2022-08-03T06:33:05.672Z,8.17
2022-08-03T06:35:38.648Z,9.27
2022-08-03T06:38:13.051Z,8.20
2022-08-03T06:40:45.667Z,9.53
2022-08-03T06:43:18.866Z,11.27
2022-08-03T06:45:49.350Z,9.47
2022-08-03T06:48:19.363Z,8.50
2022-08-03T06:50:49.374Z,9.90
2022-08-03T06:53:21.260Z,8.17
2022-08-03T06:55:55.138Z,8.83
2022-08-03T06:58:25.669Z,8.80
2022-08-03T07:00:56.210Z,11.63
2022-08-03T07:03:26.418Z,11.80
2022-08-03T07:05:56.619Z,10.50
2022-08-03T07:08:33.818Z,10.23
2022-08-03T07:11:08.030Z,11.30
2022-08-03T07:13:38.118Z,9.13
2022-08-03T07:16:09.000Z,8.60
2022-08-03T07:18:41.865Z,12.07
2022-08-03T07:21:12.837Z,8.90
2022-08-03T07:23:42.910Z,9.57
2022-08-03T07:26:15.492Z,15.60
2022-08-03T07:28:45.481Z,7.30
2022-08-03T07:31:15.503Z,7.53
2022-08-03T07:33:46.203Z,11.50
2022-08-03T07:36:16.201Z,13.80
2022-08-03T07:38:46.420Z,8.03
2022-08-03T07:41:19.446Z,8.73
2022-08-03T07:43:49.403Z,7.80
2022-08-03T07:46:19.400Z,7.03
2022-08-03T07:48:49.623Z,6.83
2022-08-03T07:51:19.620Z,8.23
2022-08-03T07:53:49.861Z,8.40
2022-08-03T07:56:25.595Z,7.43
2022-08-03T07:58:57.217Z,29.03
2022-08-03T08:01:27.502Z,8.53
2022-08-03T08:03:57.709Z,9.40
2022-08-03T08:06:28.112Z,9.50
2022-08-03T08:09:01.817Z,10.60
2022-08-03T08:11:39.677Z,7.20
2022-08-03T08:14:10.074Z,15.00
2022-08-03T08:16:40.112Z,15.47
2022-08-03T08:19:10.141Z,7.50
2022-08-03T08:21:53.813Z,9.30
2022-08-03T08:24:34.162Z,14.60
2022-08-03T08:27:08.799Z,6.90
2022-08-03T08:29:38.879Z,8.00
2022-08-03T08:32:18.174Z,10.47
2022-08-03T08:34:48.349Z,9.47
2022-08-03T08:37:18.333Z,9.60
2022-08-03T08:39:48.466Z,9.70
2022-08-03T08:42:21.400Z,6.80
2022-08-03T08:44:51.478Z,5.30
2022-08-03T08:47:27.127Z,6.67
2022-08-03T08:50:09.229Z,9.17
2022-08-03T08:52:44.342Z,6.10
2022-08-03T08:55:18.826Z,5.30
2022-08-03T08:57:55.176Z,6.53
2022-08-03T09:00:25.179Z,5.33
2022-08-03T09:02:55.317Z,5.37
2022-08-03T09:05:41.559Z,5.53
2022-08-03T09:08:15.857Z,3.80
2022-08-03T09:10:45.850Z,3.83
2022-08-03T09:13:19.228Z,6.83
2022-08-03T09:15:57.190Z,3.70
2022-08-03T09:18:33.418Z,4.40
2022-08-03T09:21:31.040Z,6.00
2022-08-03T09:24:06.160Z,5.73
2022-08-03T09:26:39.328Z,4.43
2022-08-03T09:29:15.410Z,4.27
2022-08-03T09:31:48.611Z,6.73
2022-08-03T09:34:21.012Z,4.23
2022-08-03T09:36:54.170Z,3.93
2022-08-03T09:39:41.631Z,4.17
2022-08-03T09:42:14.894Z,3.40
2022-08-03T09:44:50.629Z,4.00
2022-08-03T09:47:32.969Z,4.90
2022-08-03T09:50:04.919Z,4.27
2022-08-03T09:52:52.094Z,4.50
2022-08-03T09:56:34.346Z,4.33
2022-08-03T09:58:15.048Z,3.90
2022-08-03T10:01:01.623Z,3.90
2022-08-03T10:03:36.183Z,4.50
2022-08-03T10:06:28.775Z,4.30
2022-08-03T10:09:10.652Z,5.60
2022-08-03T10:11:42.486Z,4.83
2022-08-03T10:14:19.168Z,3.47
2022-08-03T10:16:52.996Z,6.60
2022-08-03T10:19:23.127Z,4.40
2022-08-03T10:21:58.266Z,3.37
2022-08-03T10:24:32.278Z,4.57
2022-08-03T10:27:07.223Z,4.43
2022-08-03T10:29:41.815Z,5.73
2022-08-03T10:32:23.145Z,4.10
2022-08-03T10:35:00.361Z,3.47
2022-08-03T10:37:37.189Z,3.63
2022-08-03T10:40:16.193Z,4.23
2022-08-03T10:43:06.208Z,3.60
2022-08-03T10:45:43.981Z,4.40
2022-08-03T10:48:17.520Z,3.70
2022-08-03T10:50:48.913Z,9.73
2022-08-03T10:53:36.344Z,3.77
2022-08-03T10:56:24.651Z,7.10
2022-08-03T10:59:10.615Z,3.67
2022-08-03T11:02:01.343Z,4.10
2022-08-03T11:04:33.981Z,3.50
2022-08-03T11:07:24.309Z,3.70
2022-08-03T11:09:56.236Z,3.40
2022-08-03T11:12:31.398Z,4.77
2022-08-03T11:15:04.631Z,6.43
2022-08-03T11:17:46.583Z,5.13
2022-08-03T11:20:51.736Z,5.80
2022-08-03T11:24:04.235Z,4.67
2022-08-03T11:26:33.905Z,4.00
2022-08-03T11:29:30.719Z,7.10
2022-08-03T11:32:01.337Z,3.90
2022-08-03T11:34:31.380Z,3.73
2022-08-03T11:37:33.346Z,4.10
2022-08-03T11:40:04.072Z,4.13
2022-08-03T11:42:50.180Z,3.90
2022-08-03T11:45:20.225Z,4.93
2022-08-03T11:47:55.686Z,3.97
2022-08-03T11:50:25.951Z,5.93
2022-08-03T11:52:58.601Z,5.80
2022-08-03T11:55:30.715Z,4.27
2022-08-03T11:59:15.187Z,4.20
2022-08-03T12:00:53.825Z,4.60
2022-08-03T12:03:24.153Z,4.73
2022-08-03T12:05:56.481Z,3.80
2022-08-03T12:08:38.064Z,3.90
2022-08-03T12:11:11.455Z,5.00
2022-08-03T12:14:45.161Z,3.73
2022-08-03T12:16:35.137Z,5.10
2022-08-03T12:19:08.285Z,4.70
2022-08-03T12:21:38.274Z,5.47
2022-08-03T12:24:12.331Z,3.97
2022-08-03T12:26:58.846Z,3.73
2022-08-03T12:29:30.330Z,4.10
2022-08-03T12:32:00.460Z,4.70
2022-08-03T12:34:48.840Z,5.63
2022-08-03T12:37:23.720Z,6.40
2022-08-03T12:40:02.382Z,3.90
2022-08-03T12:42:37.201Z,4.07
2022-08-03T12:45:26.460Z,5.13
2022-08-03T12:47:59.028Z,3.80
2022-08-03T12:50:34.171Z,4.80
2022-08-03T12:53:08.937Z,3.87
2022-08-03T12:56:05.124Z,5.17
2022-08-03T12:58:36.929Z,3.77
2022-08-03T13:01:10.742Z,4.53
2022-08-03T13:03:46.021Z,5.60
2022-08-03T13:06:23.438Z,5.17
2022-08-03T13:09:04.397Z,5.00
2022-08-03T13:12:08.310Z,3.67
2022-08-03T13:14:38.620Z,3.70
2022-08-03T13:17:09.399Z,7.13
2022-08-03T13:19:40.702Z,4.10
2022-08-03T13:22:19.052Z,6.53
2022-08-03T13:24:51.514Z,4.70
2022-08-03T13:28:04.705Z,4.00
2022-08-03T13:30:29.883Z,4.80
2022-08-03T13:33:01.394Z,6.00
2022-08-03T13:35:31.362Z,4.30
2022-08-03T13:38:01.397Z,3.80
2022-08-03T13:40:35.635Z,4.07
2022-08-03T13:43:14.268Z,3.80
2022-08-03T13:45:49.353Z,4.30
2022-08-03T13:48:37.229Z,4.53
2022-08-03T13:51:11.782Z,6.63
2022-08-03T13:53:54.314Z,4.70
2022-08-03T13:56:24.302Z,4.67
2022-08-03T13:58:57.887Z,5.63
2022-08-03T14:01:54.282Z,4.83
2022-08-03T14:04:22.266Z,4.53
2022-08-03T14:06:52.814Z,4.23
2022-08-03T14:09:22.891Z,4.50
2022-08-03T14:12:07.761Z,4.93
2022-08-03T14:14:41.653Z,6.27
2022-08-03T14:17:11.694Z,7.30
2022-08-03T14:19:53.311Z,5.00
2022-08-03T14:22:24.608Z,3.30
2022-08-03T14:24:54.562Z,7.40
2022-08-03T14:27:24.493Z,6.20
2022-08-03T14:29:59.755Z,5.33
2022-08-03T14:32:30.042Z,3.60
2022-08-03T14:35:00.119Z,4.70
2022-08-03T14:37:30.068Z,5.17
2022-08-03T14:40:00.992Z,5.00
2022-08-03T14:42:31.401Z,5.23
2022-08-03T14:45:09.015Z,4.63
2022-08-03T14:50:29.295Z,3.37
2022-08-03T14:50:41.939Z,6.07
2022-08-03T14:53:13.277Z,3.93
2022-08-03T14:55:50.276Z,4.50
2022-08-03T14:58:22.221Z,4.53
2022-08-03T15:00:57.420Z,3.67
2022-08-03T15:03:28.584Z,3.97
2022-08-03T15:06:00.142Z,4.30
2022-08-03T15:08:31.033Z,5.10
2022-08-03T15:11:01.011Z,4.33
2022-08-03T15:13:30.969Z,4.77
2022-08-03T15:16:03.600Z,5.17
2022-08-03T15:18:34.176Z,3.80
2022-08-03T15:21:04.109Z,5.13
2022-08-03T15:23:34.135Z,4.40
2022-08-03T15:26:31.526Z,3.53
2022-08-03T15:28:54.356Z,3.60
2022-08-03T15:31:27.710Z,5.20
2022-08-03T15:33:57.755Z,3.80
2022-08-03T15:36:28.051Z,4.33
2022-08-03T15:38:58.089Z,3.90
2022-08-03T15:41:28.167Z,5.47
2022-08-03T15:43:58.163Z,3.77
2022-08-03T15:46:30.931Z,4.00
2022-08-03T15:49:01.006Z,4.60
2022-08-03T15:51:30.986Z,9.73
2022-08-03T15:54:00.984Z,4.27
2022-08-03T15:56:31.166Z,4.73
2022-08-03T15:59:13.247Z,5.00
2022-08-03T16:01:46.635Z,5.90
2022-08-03T16:04:16.683Z,6.60
2022-08-03T16:06:46.691Z,5.37
2022-08-03T16:09:24.294Z,4.87
2022-08-03T16:12:16.142Z,4.73
2022-08-03T16:14:55.213Z,4.43
2022-08-03T16:17:28.153Z,4.97
2022-08-03T16:19:58.174Z,5.80
2022-08-03T16:22:28.794Z,3.50
2022-08-03T16:25:00.236Z,4.10
2022-08-03T16:27:56.627Z,4.40
2022-08-03T16:30:22.335Z,3.80
2022-08-03T16:32:55.018Z,6.63
2022-08-03T16:35:25.021Z,6.13
2022-08-03T16:37:56.398Z,21.67
2022-08-03T16:40:27.971Z,5.57
2022-08-03T16:42:58.080Z,6.43
2022-08-03T16:45:28.455Z,4.00
2022-08-03T16:48:01.663Z,4.63
2022-08-03T16:50:37.108Z,7.20
2022-08-03T16:53:09.742Z,5.10
2022-08-03T16:55:52.066Z,3.60
2022-08-03T16:58:41.254Z,4.73
2022-08-03T17:01:21.485Z,4.87
2022-08-03T17:04:03.565Z,4.20
2022-08-03T17:06:44.900Z,6.23
2022-08-03T17:09:20.561Z,3.80
2022-08-03T17:11:53.936Z,6.23
2022-08-03T17:14:28.461Z,3.70
2022-08-03T17:17:04.058Z,4.83
2022-08-03T17:19:47.071Z,4.10
2022-08-03T17:22:22.681Z,3.80
2022-08-03T17:24:56.887Z,5.57
2022-08-03T17:28:43.101Z,4.20
2022-08-03T17:30:21.687Z,6.67
2022-08-03T17:32:57.673Z,4.63
2022-08-03T17:35:35.516Z,4.00
2022-08-03T17:38:13.854Z,4.60
2022-08-03T17:40:50.308Z,7.50
2022-08-03T17:44:13.111Z,5.70
2022-08-03T17:46:12.843Z,4.80
2022-08-03T17:48:43.588Z,3.90
2022-08-03T17:51:22.554Z,6.10
2022-08-03T17:54:18.224Z,3.90
2022-08-03T17:57:21.915Z,4.93
2022-08-03T18:00:25.193Z,5.27
2022-08-03T18:03:18.423Z,7.10
2022-08-03T18:06:11.022Z,5.53
2022-08-03T18:08:54.101Z,4.57
2022-08-03T18:11:35.484Z,7.20
2022-08-03T18:14:18.738Z,5.17
2022-08-03T18:17:00.269Z,5.40
2022-08-03T18:20:02.433Z,6.57
2022-08-03T18:22:25.284Z,6.97
2022-08-03T18:24:58.982Z,10.57
2022-08-03T18:27:42.512Z,3.80
2022-08-03T18:30:17.148Z,6.40
2022-08-03T18:33:00.720Z,5.67
2022-08-03T18:35:53.256Z,24.97
2022-08-03T18:38:25.084Z,6.00
2022-08-03T18:40:58.069Z,9.50
2022-08-03T18:43:46.620Z,5.73
2022-08-03T18:46:36.296Z,5.87
2022-08-03T18:49:24.306Z,7.20
2022-08-03T18:52:12.260Z,7.60
2022-08-03T18:55:02.839Z,11.07
2022-08-03T18:57:51.494Z,17.13
2022-08-03T19:00:24.454Z,10.67
2022-08-03T19:03:20.672Z,8.33
2022-08-03T19:06:05.898Z,8.80
2022-08-03T19:08:48.705Z,8.53
2022-08-03T19:11:28.193Z,7.73
2022-08-03T19:14:04.996Z,9.30
2022-08-03T19:16:44.671Z,9.47
2022-08-03T19:19:15.629Z,9.10
2022-08-03T19:21:47.867Z,8.03
2022-08-03T19:24:23.566Z,9.13
2022-08-03T19:26:58.404Z,8.00
2022-08-03T19:29:58.962Z,8.50
2022-08-03T19:32:26.713Z,8.80
2022-08-03T19:34:57.471Z,12.27
2022-08-03T19:37:38.292Z,9.90
2022-08-03T19:40:12.609Z,8.40
2022-08-03T19:42:48.718Z,13.50
2022-08-03T19:46:05.013Z,8.00
2022-08-03T19:48:36.740Z,7.20
2022-08-03T19:51:12.262Z,10.30
2022-08-03T19:53:47.425Z,13.53
2022-08-03T19:56:22.053Z,5.03
2022-08-03T19:58:56.898Z,6.50
2022-08-03T20:01:31.038Z,8.53
2022-08-03T20:04:21.475Z,6.40
2022-08-03T20:06:57.097Z,8.43
2022-08-03T20:09:30.425Z,26.60
2022-08-03T20:12:00.762Z,8.33
2022-08-03T20:14:31.698Z,6.00
2022-08-03T20:17:04.507Z,7.47
2022-08-03T20:19:39.346Z,9.27
2022-08-03T20:22:14.511Z,8.60
2022-08-03T20:24:53.081Z,13.20
2022-08-03T20:27:30.202Z,5.93
2022-08-03T20:30:06.936Z,8.27
2022-08-03T20:32:41.818Z,5.63
2022-08-03T20:35:13.125Z,6.80
2022-08-03T20:37:44.002Z,6.20
2022-08-03T20:40:15.226Z,7.40
2022-08-03T20:42:45.371Z,7.23
2022-08-03T20:46:00.027Z,7.77
2022-08-03T20:48:09.383Z,6.67
2022-08-03T20:50:40.699Z,7.17
2022-08-03T20:53:14.061Z,6.73
2022-08-03T20:56:03.054Z,8.50
2022-08-03T20:58:34.036Z,8.93
2022-08-03T21:01:06.662Z,7.40
2022-08-03T21:03:41.046Z,8.43
2022-08-03T21:06:27.627Z,7.17
2022-08-03T21:09:06.804Z,7.00
2022-08-03T21:11:43.354Z,7.10
2022-08-03T21:14:22.944Z,8.60
2022-08-03T21:16:54.442Z,10.83
2022-08-03T21:19:33.740Z,8.00
2022-08-03T21:22:10.390Z,6.77
2022-08-03T21:24:44.794Z,10.07
2022-08-03T21:27:15.709Z,7.53
2022-08-03T21:29:53.400Z,7.00
2022-08-03T21:32:30.027Z,8.03
2022-08-03T21:35:07.048Z,7.07
2022-08-03T21:37:37.286Z,12.83
2022-08-03T21:40:09.258Z,8.30
2022-08-03T21:42:39.438Z,6.00
2022-08-03T21:45:17.673Z,7.93
2022-08-03T21:47:49.785Z,6.93
2022-08-03T21:50:23.499Z,8.30
2022-08-03T21:52:55.177Z,6.37
2022-08-03T21:55:31.634Z,8.47
2022-08-03T21:58:07.326Z,10.60
2022-08-03T22:00:38.165Z,6.13
2022-08-03T22:03:15.334Z,9.90
2022-08-03T22:05:50.951Z,8.20
2022-08-03T22:08:21.836Z,6.70
2022-08-03T22:10:52.045Z,5.93
2022-08-03T22:13:43.049Z,7.10
2022-08-03T22:16:14.682Z,8.80
2022-08-03T22:18:47.613Z,12.80
2022-08-03T22:21:28.151Z,11.53
2022-08-03T22:24:10.061Z,9.43
2022-08-03T22:27:05.658Z,5.90
2022-08-03T22:29:39.569Z,10.87
2022-08-03T22:32:10.422Z,7.17
2022-08-03T22:34:42.860Z,8.60
2022-08-03T22:37:20.021Z,8.00
2022-08-03T22:39:54.191Z,9.23
2022-08-03T22:42:26.928Z,4.97
2022-08-03T22:44:58.235Z,6.73
2022-08-03T22:47:28.452Z,6.93
2022-08-03T22:50:33.577Z,6.83
2022-08-03T22:52:54.060Z,9.33
2022-08-03T22:55:26.735Z,6.33
2022-08-03T22:57:56.975Z,4.90
2022-08-03T23:00:27.830Z,7.20
2022-08-03T23:03:02.380Z,6.70
2022-08-03T23:06:00.652Z,5.10
2022-08-03T23:08:34.168Z,5.97
2022-08-03T23:11:09.255Z,6.50
2022-08-03T23:13:43.829Z,6.40
2022-08-03T23:16:14.416Z,7.60
2022-08-03T23:18:48.687Z,6.57
2022-08-03T23:21:53.466Z,10.17
2022-08-03T23:24:29.797Z,6.57
2022-08-03T23:27:00.883Z,8.40
2022-08-03T23:29:33.861Z,6.03
2022-08-03T23:32:05.537Z,6.90
2022-08-03T23:34:49.067Z,7.97
2022-08-03T23:37:21.314Z,10.67
2022-08-03T23:39:55.841Z,7.07
2022-08-03T23:42:26.892Z,7.43
2022-08-03T23:45:05.919Z,6.83
2022-08-03T23:47:46.491Z,7.10
2022-08-03T23:50:18.389Z,9.03
2022-08-03T23:53:04.405Z,7.17
2022-08-03T23:55:56.452Z,6.03
2022-08-03T23:58:52.794Z,8.47
